createdAt,value
2018-11-20T00:00:38.556Z,998.7
2018-11-20T00:01:39.981Z,998.7
2018-11-20T00:02:41.391Z,998.7
2018-11-20T00:03:42.812Z,998.7
2018-11-20T00:04:44.218Z,998.6
2018-11-20T00:05:45.602Z,998.6
2018-11-20T00:06:47.023Z,998.6
2018-11-20T00:07:48.474Z,998.6
2018-11-20T00:08:49.897Z,998.6
2018-11-20T00:09:51.289Z,998.6
2018-11-20T00:10:52.713Z,998.6
2018-11-20T00:11:54.139Z,998.5
2018-11-20T00:12:55.535Z,998.5
2018-11-20T00:13:56.933Z,998.4
2018-11-20T00:14:58.334Z,998.4
2018-11-20T00:15:59.732Z,998.4
2018-11-20T00:17:01.118Z,998.3
2018-11-20T00:18:02.528Z,998.4
2018-11-20T00:19:03.916Z,998.2
2018-11-20T00:20:05.309Z,998.2
2018-11-20T00:21:06.697Z,998.2
2018-11-20T00:22:08.094Z,998.2
2018-11-20T00:23:09.510Z,998.2
2018-11-20T00:24:10.914Z,998.2
2018-11-20T00:25:12.330Z,998.2
2018-11-20T00:26:13.744Z,998.2
2018-11-20T00:27:15.178Z,998.2
2018-11-20T00:28:16.585Z,998.2
2018-11-20T00:29:17.981Z,998.1
2018-11-20T00:30:19.368Z,998.1
2018-11-20T00:31:20.802Z,998.1
2018-11-20T00:32:22.261Z,998.2
2018-11-20T00:33:23.689Z,998.2
2018-11-20T00:34:25.097Z,998.1
2018-11-20T00:35:26.498Z,998.1
2018-11-20T00:36:27.925Z,998.1
2018-11-20T00:37:29.325Z,998.1
2018-11-20T00:38:30.722Z,998.0
2018-11-20T00:39:32.200Z,998.0
2018-11-20T00:40:33.661Z,998.0
2018-11-20T00:41:35.058Z,998.0
2018-11-20T00:42:36.483Z,998.0
2018-11-20T00:43:37.875Z,998.0
2018-11-20T00:44:39.288Z,998.0
2018-11-20T00:45:40.681Z,998.0
2018-11-20T00:46:42.144Z,998.0
2018-11-20T00:47:43.538Z,998.0
2018-11-20T00:48:44.929Z,997.9
2018-11-20T00:49:46.329Z,997.9
2018-11-20T00:50:47.767Z,997.9
2018-11-20T00:51:49.148Z,997.9
2018-11-20T00:52:50.584Z,997.9
2018-11-20T00:53:52.040Z,997.8
2018-11-20T00:54:53.468Z,997.8
2018-11-20T00:55:54.851Z,997.8
2018-11-20T00:56:56.256Z,997.8
2018-11-20T00:57:57.686Z,997.7
2018-11-20T00:58:59.130Z,997.8
2018-11-20T01:00:00.538Z,997.8
2018-11-20T01:01:01.957Z,997.8
2018-11-20T01:02:03.332Z,997.8
2018-11-20T01:03:04.770Z,997.8
2018-11-20T01:04:06.201Z,997.8
2018-11-20T01:05:07.590Z,997.7
2018-11-20T01:06:09.017Z,997.8
2018-11-20T01:07:10.420Z,997.8
2018-11-20T01:08:11.851Z,997.8
2018-11-20T01:09:13.229Z,997.8
2018-11-20T01:10:14.633Z,997.8
2018-11-20T01:11:16.035Z,997.9
2018-11-20T01:12:17.455Z,997.8
2018-11-20T01:13:18.839Z,997.8
2018-11-20T01:14:20.224Z,997.8
2018-11-20T01:15:21.626Z,997.8
2018-11-20T01:16:23.018Z,997.8
2018-11-20T01:17:24.449Z,997.8
2018-11-20T01:18:25.847Z,997.8
2018-11-20T01:19:27.271Z,997.7
2018-11-20T01:20:28.693Z,997.8
2018-11-20T01:21:30.148Z,997.8
2018-11-20T01:22:31.570Z,997.8
2018-11-20T01:23:32.962Z,997.8
2018-11-20T01:24:34.372Z,997.9
2018-11-20T01:25:35.775Z,997.8
2018-11-20T01:26:37.185Z,997.8
2018-11-20T01:27:38.602Z,997.8
2018-11-20T01:28:40.153Z,997.8
2018-11-20T01:29:41.557Z,997.8
2018-11-20T01:30:42.959Z,997.7
2018-11-20T01:31:44.366Z,997.7
2018-11-20T01:32:45.792Z,997.7
2018-11-20T01:33:47.255Z,997.8
2018-11-20T01:34:48.645Z,997.7
2018-11-20T01:35:50.046Z,997.7
2018-11-20T01:36:51.457Z,997.7
2018-11-20T01:37:52.835Z,997.7
2018-11-20T01:38:54.226Z,997.7
2018-11-20T01:39:55.606Z,997.7
2018-11-20T01:40:57.033Z,997.7
2018-11-20T01:41:58.446Z,997.7
2018-11-20T01:42:59.873Z,997.7
2018-11-20T01:44:01.271Z,997.7
2018-11-20T01:45:02.744Z,997.7
2018-11-20T01:46:04.215Z,997.7
2018-11-20T01:47:05.593Z,997.6
2018-11-20T01:48:06.984Z,997.6
2018-11-20T01:49:08.422Z,997.6
2018-11-20T01:50:09.820Z,997.6
2018-11-20T01:51:11.259Z,997.6
2018-11-20T01:52:12.669Z,997.5
2018-11-20T01:53:14.075Z,997.6
2018-11-20T01:54:15.472Z,997.5
2018-11-20T01:55:16.863Z,997.5
2018-11-20T01:56:18.265Z,997.5
2018-11-20T01:57:19.692Z,997.5
2018-11-20T01:58:21.120Z,997.5
2018-11-20T01:59:22.520Z,997.5
2018-11-20T02:00:23.939Z,997.5
2018-11-20T02:01:25.388Z,997.5
2018-11-20T02:02:26.757Z,997.4
2018-11-20T02:03:28.159Z,997.5
2018-11-20T02:04:29.560Z,997.5
2018-11-20T02:05:30.924Z,997.4
2018-11-20T02:06:32.334Z,997.4
2018-11-20T02:07:33.721Z,997.4
2018-11-20T02:08:35.136Z,997.4
2018-11-20T02:09:36.530Z,997.3
2018-11-20T02:10:37.962Z,997.3
2018-11-20T02:11:39.342Z,997.3
2018-11-20T02:12:40.729Z,997.4
2018-11-20T02:13:42.161Z,997.4
2018-11-20T02:14:43.581Z,997.3
2018-11-20T02:15:44.981Z,997.3
2018-11-20T02:16:46.452Z,997.3
2018-11-20T02:17:47.942Z,997.3
2018-11-20T02:18:49.357Z,997.4
2018-11-20T02:19:50.741Z,997.3
2018-11-20T02:20:52.162Z,997.3
2018-11-20T02:21:53.572Z,997.3
2018-11-20T02:22:54.962Z,997.2
2018-11-20T02:23:56.343Z,997.3
2018-11-20T02:24:57.750Z,997.3
2018-11-20T02:25:59.142Z,997.2
2018-11-20T02:27:00.540Z,997.3
2018-11-20T02:28:01.955Z,997.3
2018-11-20T02:29:03.362Z,997.3
2018-11-20T02:30:04.820Z,997.2
2018-11-20T02:31:06.210Z,997.2
2018-11-20T02:32:07.617Z,997.2
2018-11-20T02:33:09.000Z,997.2
2018-11-20T02:34:10.424Z,997.1
2018-11-20T02:35:11.833Z,997.0
2018-11-20T02:36:13.266Z,997.1
2018-11-20T02:37:14.677Z,997.1
2018-11-20T02:38:16.071Z,997.1
2018-11-20T02:39:17.518Z,997.1
2018-11-20T02:40:18.912Z,997.1
2018-11-20T02:41:20.367Z,997.2
2018-11-20T02:42:21.784Z,997.2
2018-11-20T02:43:23.211Z,997.1
2018-11-20T02:44:24.599Z,997.1
2018-11-20T02:45:26.003Z,997.2
2018-11-20T02:46:27.706Z,997.2
2018-11-20T02:47:29.095Z,997.1
2018-11-20T02:48:30.505Z,997.1
2018-11-20T02:49:31.905Z,997.2
2018-11-20T02:50:33.298Z,997.1
2018-11-20T02:51:34.824Z,997.1
2018-11-20T02:52:36.123Z,997.1
2018-11-20T02:53:37.581Z,997.1
2018-11-20T02:54:39.007Z,997.0
2018-11-20T02:55:40.432Z,997.0
2018-11-20T02:56:41.817Z,997.0
2018-11-20T02:57:43.232Z,997.0
2018-11-20T02:58:44.601Z,997.0
2018-11-20T02:59:46.046Z,997.0
2018-11-20T03:00:47.446Z,997.0
2018-11-20T03:01:48.867Z,997.0
2018-11-20T03:02:50.239Z,997.0
2018-11-20T03:03:51.772Z,996.9
2018-11-20T03:04:53.052Z,996.9
2018-11-20T03:05:54.562Z,997.0
2018-11-20T03:06:55.961Z,997.0
2018-11-20T03:07:57.351Z,997.0
2018-11-20T03:08:58.742Z,997.0
2018-11-20T03:10:00.146Z,996.9
2018-11-20T03:11:01.559Z,997.0
2018-11-20T03:12:02.963Z,996.9
2018-11-20T03:13:04.373Z,996.9
2018-11-20T03:14:05.763Z,996.9
2018-11-20T03:15:07.198Z,997.0
2018-11-20T03:16:08.593Z,996.9
2018-11-20T03:17:50.174Z,996.9
2018-11-20T03:18:51.585Z,996.9
2018-11-20T03:19:52.985Z,996.9
2018-11-20T03:20:54.372Z,996.8
2018-11-20T03:21:55.797Z,996.8
2018-11-20T03:22:57.179Z,996.9
2018-11-20T03:23:58.584Z,996.8
2018-11-20T03:24:59.964Z,996.7
2018-11-20T03:26:01.354Z,996.7
2018-11-20T03:27:02.797Z,996.7
2018-11-20T03:28:04.145Z,996.7
2018-11-20T03:29:05.533Z,996.6
2018-11-20T03:30:06.933Z,996.7
2018-11-20T03:31:08.333Z,996.7
2018-11-20T03:32:09.776Z,996.7
2018-11-20T03:33:11.187Z,996.6
2018-11-20T03:34:12.603Z,996.6
2018-11-20T03:35:14.035Z,996.6
2018-11-20T03:36:15.513Z,996.5
2018-11-20T03:37:16.841Z,996.5
2018-11-20T03:38:18.229Z,996.5
2018-11-20T03:39:19.654Z,996.5
2018-11-20T03:40:21.099Z,996.5
2018-11-20T03:41:22.482Z,996.5
2018-11-20T03:42:23.878Z,996.4
2018-11-20T03:43:25.292Z,996.4
2018-11-20T03:44:26.673Z,996.4
2018-11-20T03:45:28.062Z,996.4
2018-11-20T03:46:29.459Z,996.4
2018-11-20T03:47:30.848Z,996.4
2018-11-20T03:48:32.224Z,996.4
2018-11-20T03:49:33.618Z,996.4
2018-11-20T03:50:35.021Z,996.4
2018-11-20T03:51:36.420Z,996.3
2018-11-20T03:52:37.806Z,996.4
2018-11-20T03:53:39.214Z,996.4
2018-11-20T03:54:40.595Z,996.3
2018-11-20T03:55:41.995Z,996.4
2018-11-20T03:56:43.390Z,996.4
2018-11-20T03:57:44.793Z,996.4
2018-11-20T03:58:46.191Z,996.4
2018-11-20T03:59:47.601Z,996.3
2018-11-20T04:00:49.016Z,996.3
2018-11-20T04:01:50.400Z,996.3
2018-11-20T04:02:51.810Z,996.4
2018-11-20T04:03:53.204Z,996.4
2018-11-20T04:04:54.616Z,996.3
2018-11-20T04:05:56.001Z,996.3
2018-11-20T04:06:57.406Z,996.4
2018-11-20T04:07:58.818Z,996.3
2018-11-20T04:09:00.217Z,996.3
2018-11-20T04:10:01.631Z,996.3
2018-11-20T04:11:03.008Z,996.2
2018-11-20T04:12:04.416Z,996.2
2018-11-20T04:13:05.816Z,996.1
2018-11-20T04:14:07.204Z,996.3
2018-11-20T04:15:08.596Z,996.2
2018-11-20T04:16:10.016Z,996.3
2018-11-20T04:17:11.443Z,996.2
2018-11-20T04:18:12.889Z,996.2
2018-11-20T04:19:14.279Z,996.3
2018-11-20T04:20:16.631Z,996.2
2018-11-20T04:21:18.058Z,996.3
2018-11-20T04:22:19.482Z,996.3
2018-11-20T04:23:20.859Z,996.2
2018-11-20T04:24:22.283Z,996.3
2018-11-20T04:25:23.669Z,996.2
2018-11-20T04:26:25.085Z,996.2
2018-11-20T04:27:26.585Z,996.2
2018-11-20T04:28:27.977Z,996.2
2018-11-20T04:29:29.358Z,996.2
2018-11-20T04:30:30.757Z,996.2
2018-11-20T04:31:32.176Z,996.2
2018-11-20T04:32:33.553Z,996.2
2018-11-20T04:33:34.955Z,996.2
2018-11-20T04:34:36.367Z,996.2
2018-11-20T04:35:37.766Z,996.1
2018-11-20T04:36:39.132Z,996.1
2018-11-20T04:37:40.518Z,996.1
2018-11-20T04:38:41.900Z,996.1
2018-11-20T04:39:43.318Z,996.1
2018-11-20T04:40:44.713Z,996.0
2018-11-20T04:41:46.116Z,996.0
2018-11-20T04:42:47.512Z,996.1
2018-11-20T04:43:48.922Z,996.0
2018-11-20T04:44:50.309Z,996.0
2018-11-20T04:45:51.723Z,996.1
2018-11-20T04:46:53.115Z,996.1
2018-11-20T04:47:54.490Z,996.1
2018-11-20T04:48:55.884Z,996.0
2018-11-20T04:49:57.318Z,996.0
2018-11-20T04:50:58.700Z,996.0
2018-11-20T04:52:00.120Z,996.0
2018-11-20T04:53:01.501Z,996.0
2018-11-20T04:54:02.900Z,996.0
2018-11-20T04:55:04.292Z,996.0
2018-11-20T04:56:05.685Z,995.9
2018-11-20T04:57:07.072Z,995.9
2018-11-20T04:58:08.470Z,995.8
2018-11-20T04:59:09.867Z,995.9
2018-11-20T05:00:11.254Z,995.9
2018-11-20T05:01:12.633Z,995.9
2018-11-20T05:02:14.040Z,995.9
2018-11-20T05:03:15.419Z,996.0
2018-11-20T05:04:16.807Z,996.0
2018-11-20T05:05:18.204Z,996.0
2018-11-20T05:06:19.601Z,995.9
2018-11-20T05:07:20.992Z,995.8
2018-11-20T05:08:22.430Z,995.9
2018-11-20T05:09:23.848Z,995.9
2018-11-20T05:10:25.216Z,996.0
2018-11-20T05:11:26.611Z,995.9
2018-11-20T05:12:28.000Z,995.9
2018-11-20T05:13:29.544Z,995.8
2018-11-20T05:14:30.831Z,995.9
2018-11-20T05:15:32.253Z,995.9
2018-11-20T05:16:33.652Z,995.9
2018-11-20T05:17:35.206Z,995.9
2018-11-20T05:18:36.614Z,995.8
2018-11-20T05:19:37.997Z,995.9
2018-11-20T05:20:39.415Z,995.9
2018-11-20T05:21:40.799Z,995.9
2018-11-20T05:22:42.183Z,995.8
2018-11-20T05:23:43.564Z,995.8
2018-11-20T05:24:44.957Z,995.8
2018-11-20T05:25:46.368Z,995.7
2018-11-20T05:26:47.760Z,995.7
2018-11-20T05:27:49.210Z,995.7
2018-11-20T05:28:50.543Z,995.7
2018-11-20T05:29:51.941Z,995.6
2018-11-20T05:30:53.397Z,995.6
2018-11-20T05:31:54.723Z,995.6
2018-11-20T05:32:56.115Z,995.6
2018-11-20T05:33:57.505Z,995.7
2018-11-20T05:34:58.892Z,995.7
2018-11-20T05:36:00.283Z,995.7
2018-11-20T05:37:41.253Z,995.7
2018-11-20T05:38:42.689Z,995.6
2018-11-20T05:39:44.060Z,995.6
2018-11-20T05:40:45.469Z,995.6
2018-11-20T05:41:46.867Z,995.7
2018-11-20T05:42:48.301Z,995.7
2018-11-20T05:43:49.810Z,995.6
2018-11-20T05:44:51.232Z,995.6
2018-11-20T05:45:52.683Z,995.6
2018-11-20T05:46:54.155Z,995.6
2018-11-20T05:47:55.457Z,995.6
2018-11-20T05:48:56.842Z,995.5
2018-11-20T05:49:58.226Z,995.6
2018-11-20T05:50:59.606Z,995.6
2018-11-20T05:52:01.011Z,995.6
2018-11-20T05:53:02.462Z,995.6
2018-11-20T05:54:03.915Z,995.6
2018-11-20T05:55:05.294Z,995.6
2018-11-20T05:56:06.705Z,995.6
2018-11-20T05:57:08.146Z,995.6
2018-11-20T05:58:09.636Z,995.6
2018-11-20T05:59:11.130Z,995.6
2018-11-20T06:00:12.546Z,995.6
2018-11-20T06:01:13.994Z,995.6
2018-11-20T06:02:15.395Z,995.6
2018-11-20T06:03:16.881Z,995.6
2018-11-20T06:04:18.300Z,995.6
2018-11-20T06:05:19.754Z,995.6
2018-11-20T06:06:21.235Z,995.6
2018-11-20T06:07:22.665Z,995.6
2018-11-20T06:08:24.112Z,995.6
2018-11-20T06:09:25.614Z,995.6
2018-11-20T06:10:27.027Z,995.6
2018-11-20T06:11:28.439Z,995.6
2018-11-20T06:12:29.989Z,995.6
2018-11-20T06:13:31.238Z,995.6
2018-11-20T06:14:32.664Z,995.6
2018-11-20T06:15:34.048Z,995.5
2018-11-20T06:16:35.451Z,995.5
2018-11-20T06:17:36.952Z,995.5
2018-11-20T06:18:38.340Z,995.5
2018-11-20T06:19:39.785Z,995.5
2018-11-20T06:20:41.167Z,995.5
2018-11-20T06:21:42.638Z,995.5
2018-11-20T06:22:44.047Z,995.5
2018-11-20T06:23:45.492Z,995.5
2018-11-20T06:24:46.894Z,995.5
2018-11-20T06:25:48.351Z,995.5
2018-11-20T06:26:49.784Z,995.5
2018-11-20T06:27:51.309Z,995.5
2018-11-20T06:28:52.933Z,995.4
2018-11-20T06:29:54.263Z,995.4
2018-11-20T06:30:55.643Z,995.4
2018-11-20T06:31:57.077Z,995.4
2018-11-20T06:32:58.481Z,995.4
2018-11-20T06:33:59.902Z,995.4
2018-11-20T06:35:01.430Z,995.4
2018-11-20T06:36:02.755Z,995.4
2018-11-20T06:37:04.231Z,995.4
2018-11-20T06:38:05.667Z,995.4
2018-11-20T06:39:07.091Z,995.4
2018-11-20T06:40:08.626Z,995.5
2018-11-20T06:41:10.092Z,995.5
2018-11-20T06:42:11.463Z,995.5
2018-11-20T06:43:12.889Z,995.5
2018-11-20T06:44:14.311Z,995.5
2018-11-20T06:45:15.796Z,995.5
2018-11-20T06:46:17.199Z,995.5
2018-11-20T06:47:18.696Z,995.5
2018-11-20T06:48:20.021Z,995.5
2018-11-20T06:49:21.574Z,995.5
2018-11-20T06:50:22.998Z,995.5
2018-11-20T06:51:24.476Z,995.5
2018-11-20T06:52:25.879Z,995.5
2018-11-20T06:53:27.382Z,995.5
2018-11-20T06:54:28.712Z,995.5
2018-11-20T06:55:30.158Z,995.5
2018-11-20T06:56:31.615Z,995.4
2018-11-20T06:57:33.083Z,995.5
2018-11-20T06:58:34.460Z,995.5
2018-11-20T06:59:35.865Z,995.5
2018-11-20T07:00:37.285Z,995.5
2018-11-20T07:01:38.761Z,995.5
2018-11-20T07:02:40.099Z,995.5
2018-11-20T07:03:41.485Z,995.5
2018-11-20T07:04:42.905Z,995.5
2018-11-20T07:05:44.277Z,995.4
2018-11-20T07:06:45.681Z,995.4
2018-11-20T07:07:47.202Z,995.5
2018-11-20T07:08:48.546Z,995.5
2018-11-20T07:09:49.899Z,995.4
2018-11-20T07:10:51.315Z,995.4
2018-11-20T07:11:52.721Z,995.4
2018-11-20T07:12:54.096Z,995.4
2018-11-20T07:13:55.501Z,995.4
2018-11-20T07:14:56.961Z,995.4
2018-11-20T07:15:58.562Z,995.4
2018-11-20T07:16:59.786Z,995.5
2018-11-20T07:18:01.230Z,995.3
2018-11-20T07:19:02.614Z,995.3
2018-11-20T07:20:04.009Z,995.3
2018-11-20T07:21:05.403Z,995.3
2018-11-20T07:22:06.816Z,995.4
2018-11-20T07:23:08.240Z,995.4
2018-11-20T07:24:09.675Z,995.4
2018-11-20T07:25:11.096Z,995.4
2018-11-20T07:26:12.505Z,995.5
2018-11-20T07:27:14.076Z,995.4
2018-11-20T07:28:15.501Z,995.4
2018-11-20T07:29:16.900Z,995.5
2018-11-20T07:30:18.503Z,995.5
2018-11-20T07:31:19.791Z,995.4
2018-11-20T07:32:21.189Z,995.5
2018-11-20T07:33:22.634Z,995.5
2018-11-20T07:34:24.022Z,995.4
2018-11-20T07:35:25.407Z,995.4
2018-11-20T07:36:26.891Z,995.4
2018-11-20T07:37:28.389Z,995.3
2018-11-20T07:38:29.638Z,995.4
2018-11-20T07:39:31.006Z,995.4
2018-11-20T07:40:32.441Z,995.4
2018-11-20T07:41:33.876Z,995.4
2018-11-20T07:42:35.308Z,995.4
2018-11-20T07:43:36.773Z,995.4
2018-11-20T07:44:38.126Z,995.3
2018-11-20T07:45:39.561Z,995.4
2018-11-20T07:46:41.069Z,995.3
2018-11-20T07:47:42.466Z,995.3
2018-11-20T07:48:43.913Z,995.3
2018-11-20T07:49:45.354Z,995.3
2018-11-20T07:50:46.777Z,995.3
2018-11-20T07:51:48.191Z,995.3
2018-11-20T07:52:49.576Z,995.3
2018-11-20T07:53:51.021Z,995.3
2018-11-20T07:54:52.426Z,995.4
2018-11-20T07:55:53.898Z,995.4
2018-11-20T07:56:55.234Z,995.4
2018-11-20T07:57:56.627Z,995.4
2018-11-20T07:58:58.044Z,995.3
2018-11-20T07:59:59.464Z,995.4
2018-11-20T08:01:00.862Z,995.4
2018-11-20T08:02:02.340Z,995.4
2018-11-20T08:03:03.710Z,995.3
2018-11-20T08:04:05.104Z,995.3
2018-11-20T08:05:06.568Z,995.3
2018-11-20T08:06:07.984Z,995.4
2018-11-20T08:07:09.416Z,995.4
2018-11-20T08:08:10.859Z,995.4
2018-11-20T08:09:12.247Z,995.4
2018-11-20T08:10:13.752Z,995.3
2018-11-20T08:11:15.077Z,995.4
2018-11-20T08:12:16.507Z,995.4
2018-11-20T08:13:17.905Z,995.4
2018-11-20T08:14:19.438Z,995.3
2018-11-20T08:15:20.949Z,995.3
2018-11-20T08:16:22.360Z,995.4
2018-11-20T08:17:23.815Z,995.4
2018-11-20T08:18:25.271Z,995.4
2018-11-20T08:19:26.648Z,995.3
2018-11-20T08:20:28.085Z,995.3
2018-11-20T08:21:29.493Z,995.3
2018-11-20T08:22:30.954Z,995.2
2018-11-20T08:23:32.374Z,995.2
2018-11-20T08:24:33.787Z,995.2
2018-11-20T08:25:35.258Z,995.2
2018-11-20T08:26:36.696Z,995.2
2018-11-20T08:27:38.040Z,995.2
2018-11-20T08:28:39.434Z,995.2
2018-11-20T08:29:40.860Z,995.2
2018-11-20T08:30:42.295Z,995.1
2018-11-20T08:31:43.736Z,995.1
2018-11-20T08:32:45.158Z,995.1
2018-11-20T08:33:46.631Z,995.1
2018-11-20T08:34:47.989Z,995.1
2018-11-20T08:35:49.389Z,995.0
2018-11-20T08:36:50.837Z,995.1
2018-11-20T08:37:52.263Z,995.1
2018-11-20T08:38:53.687Z,995.1
2018-11-20T08:39:55.096Z,995.1
2018-11-20T08:40:56.500Z,995.2
2018-11-20T08:41:57.908Z,995.2
2018-11-20T08:42:59.311Z,995.1
2018-11-20T08:44:00.737Z,995.2
2018-11-20T08:45:02.151Z,995.1
2018-11-20T08:46:03.554Z,995.1
2018-11-20T08:47:04.973Z,995.2
2018-11-20T08:48:06.463Z,995.1
2018-11-20T08:49:07.866Z,995.1
2018-11-20T08:50:09.243Z,995.1
2018-11-20T08:51:10.661Z,995.1
2018-11-20T08:52:12.174Z,995.1
2018-11-20T08:53:13.628Z,995.2
2018-11-20T08:54:15.079Z,995.1
2018-11-20T08:55:16.465Z,995.1
2018-11-20T08:56:17.916Z,995.2
2018-11-20T08:57:19.304Z,995.2
2018-11-20T08:58:20.714Z,995.2
2018-11-20T08:59:22.133Z,995.2
2018-11-20T09:00:23.526Z,995.2
2018-11-20T09:01:24.926Z,995.2
2018-11-20T09:02:26.396Z,995.2
2018-11-20T09:03:27.759Z,995.2
2018-11-20T09:04:29.249Z,995.2
2018-11-20T09:05:30.652Z,995.2
2018-11-20T09:06:32.038Z,995.2
2018-11-20T09:07:33.469Z,995.2
2018-11-20T09:08:34.860Z,995.2
2018-11-20T09:09:36.340Z,995.2
2018-11-20T09:10:37.758Z,995.2
2018-11-20T09:11:39.146Z,995.3
2018-11-20T09:12:40.557Z,995.2
2018-11-20T09:13:41.961Z,995.2
2018-11-20T09:14:43.375Z,995.3
2018-11-20T09:15:44.794Z,995.3
2018-11-20T09:16:46.188Z,995.3
2018-11-20T09:17:47.597Z,995.3
2018-11-20T09:18:49.000Z,995.2
2018-11-20T09:19:50.392Z,995.3
2018-11-20T09:20:51.808Z,995.3
2018-11-20T09:21:53.193Z,995.2
2018-11-20T09:22:54.597Z,995.2
2018-11-20T09:23:55.996Z,995.2
2018-11-20T09:24:57.392Z,995.2
2018-11-20T09:25:58.777Z,995.2
2018-11-20T09:27:00.176Z,995.2
2018-11-20T09:28:01.681Z,995.1
2018-11-20T09:29:03.057Z,995.1
2018-11-20T09:30:04.488Z,995.1
2018-11-20T09:31:05.923Z,995.1
2018-11-20T09:32:07.334Z,995.2
2018-11-20T09:33:08.774Z,995.1
2018-11-20T09:34:10.206Z,995.1
2018-11-20T09:35:11.595Z,995.2
2018-11-20T09:36:12.980Z,995.2
2018-11-20T09:37:14.375Z,995.2
2018-11-20T09:38:15.766Z,995.2
2018-11-20T09:39:17.181Z,995.1
2018-11-20T09:40:18.942Z,995.1
2018-11-20T09:41:20.362Z,995.1
2018-11-20T09:42:21.783Z,995.2
2018-11-20T09:43:23.203Z,995.1
2018-11-20T09:44:24.626Z,995.2
2018-11-20T09:45:26.027Z,995.1
2018-11-20T09:46:27.448Z,995.1
2018-11-20T09:47:28.889Z,995.1
2018-11-20T09:48:30.304Z,995.0
2018-11-20T09:49:31.694Z,995.1
2018-11-20T09:50:33.090Z,995.1
2018-11-20T09:51:34.505Z,995.0
2018-11-20T09:52:35.980Z,995.0
2018-11-20T09:53:37.390Z,995.0
2018-11-20T09:54:38.818Z,995.0
2018-11-20T09:55:40.225Z,995.0
2018-11-20T09:56:41.616Z,995.0
2018-11-20T09:57:43.008Z,995.1
2018-11-20T09:58:44.427Z,995.0
2018-11-20T09:59:45.903Z,995.0
2018-11-20T10:00:47.302Z,995.0
2018-11-20T10:01:48.777Z,995.0
2018-11-20T10:02:50.132Z,995.0
2018-11-20T10:03:51.636Z,995.1
2018-11-20T10:04:52.926Z,995.1
2018-11-20T10:05:54.336Z,995.0
2018-11-20T10:06:55.848Z,995.1
2018-11-20T10:07:57.197Z,995.1
2018-11-20T10:08:58.600Z,995.0
2018-11-20T10:10:00.044Z,995.1
2018-11-20T10:11:01.456Z,995.0
2018-11-20T10:12:02.839Z,995.0
2018-11-20T10:13:04.232Z,995.0
2018-11-20T10:14:05.783Z,995.0
2018-11-20T10:15:07.090Z,995.0
2018-11-20T10:16:08.455Z,994.9
2018-11-20T10:17:09.864Z,994.9
2018-11-20T10:18:11.238Z,995.0
2018-11-20T10:19:12.637Z,994.9
2018-11-20T10:20:14.110Z,994.9
2018-11-20T10:21:15.603Z,994.9
2018-11-20T10:22:17.002Z,994.9
2018-11-20T10:23:18.411Z,994.9
2018-11-20T10:24:19.853Z,994.9
2018-11-20T10:25:21.283Z,994.9
2018-11-20T10:26:22.647Z,994.9
2018-11-20T10:27:24.067Z,994.9
2018-11-20T10:28:25.493Z,994.9
2018-11-20T10:29:26.924Z,994.9
2018-11-20T10:30:28.385Z,994.8
2018-11-20T10:31:29.797Z,994.8
2018-11-20T10:32:31.935Z,994.8
2018-11-20T10:33:33.280Z,994.8
2018-11-20T10:34:34.733Z,994.8
2018-11-20T10:35:36.148Z,994.8
2018-11-20T10:36:37.540Z,994.8
2018-11-20T10:37:38.991Z,994.7
2018-11-20T10:38:40.462Z,994.8
2018-11-20T10:39:42.059Z,994.7
2018-11-20T10:40:43.553Z,994.7
2018-11-20T10:41:44.935Z,994.7
2018-11-20T10:42:46.382Z,994.7
2018-11-20T10:43:47.793Z,994.6
2018-11-20T10:44:49.216Z,994.6
2018-11-20T10:45:50.629Z,994.6
2018-11-20T10:46:52.066Z,994.6
2018-11-20T10:47:53.477Z,994.6
2018-11-20T10:48:54.896Z,994.6
2018-11-20T10:49:56.314Z,994.5
2018-11-20T10:50:58.557Z,994.5
2018-11-20T10:51:59.934Z,994.5
2018-11-20T10:53:01.313Z,994.5
2018-11-20T10:54:02.710Z,994.5
2018-11-20T10:55:04.209Z,994.5
2018-11-20T10:56:05.635Z,994.4
2018-11-20T10:57:07.105Z,994.5
2018-11-20T10:58:08.515Z,994.5
2018-11-20T10:59:09.924Z,994.5
2018-11-20T11:00:11.355Z,994.5
2018-11-20T11:01:12.740Z,994.5
2018-11-20T11:02:14.157Z,994.5
2018-11-20T11:03:15.582Z,994.4
2018-11-20T11:04:17.098Z,994.4
2018-11-20T11:05:18.485Z,994.4
2018-11-20T11:06:19.956Z,994.4
2018-11-20T11:07:21.312Z,994.4
2018-11-20T11:08:22.696Z,994.4
2018-11-20T11:09:24.268Z,994.3
2018-11-20T11:10:25.616Z,994.3
2018-11-20T11:11:27.018Z,994.3
2018-11-20T11:12:28.497Z,994.4
2018-11-20T11:13:29.898Z,994.4
2018-11-20T11:14:31.333Z,994.4
2018-11-20T11:15:32.702Z,994.4
2018-11-20T11:16:34.118Z,994.3
2018-11-20T11:17:35.530Z,994.3
2018-11-20T11:18:36.987Z,994.3
2018-11-20T11:19:38.304Z,994.3
2018-11-20T11:20:39.825Z,994.4
2018-11-20T11:21:41.094Z,994.4
2018-11-20T11:22:42.522Z,994.4
2018-11-20T11:23:43.947Z,994.4
2018-11-20T11:24:45.310Z,994.4
2018-11-20T11:25:46.783Z,994.4
2018-11-20T11:26:48.234Z,994.4
2018-11-20T11:27:49.677Z,994.5
2018-11-20T11:28:51.867Z,994.4
2018-11-20T11:29:53.282Z,994.5
2018-11-20T11:30:54.681Z,994.5
2018-11-20T11:31:56.073Z,994.4
2018-11-20T11:32:57.460Z,994.5
2018-11-20T11:33:58.880Z,994.5
2018-11-20T11:35:00.275Z,994.4
2018-11-20T11:36:01.683Z,994.4
2018-11-20T11:37:03.065Z,994.5
2018-11-20T11:38:04.458Z,994.5
2018-11-20T11:39:05.919Z,994.5
2018-11-20T11:40:07.301Z,994.5
2018-11-20T11:41:08.701Z,994.5
2018-11-20T11:42:10.149Z,994.5
2018-11-20T11:43:11.535Z,994.5
2018-11-20T11:44:12.936Z,994.5
2018-11-20T11:45:14.380Z,994.4
2018-11-20T11:46:15.792Z,994.4
2018-11-20T11:47:17.187Z,994.4
2018-11-20T11:48:18.630Z,994.4
2018-11-20T11:49:20.092Z,994.4
2018-11-20T11:50:21.529Z,994.4
2018-11-20T11:51:25.473Z,994.4
2018-11-20T11:52:25.409Z,994.4
2018-11-20T11:53:25.784Z,994.3
2018-11-20T11:54:27.275Z,994.4
2018-11-20T11:55:28.751Z,994.3
2018-11-20T11:56:30.154Z,994.3
2018-11-20T11:57:31.608Z,994.3
2018-11-20T11:58:33.164Z,994.2
2018-11-20T11:59:34.553Z,994.2
2018-11-20T12:00:35.932Z,994.4
2018-11-20T12:03:37.018Z,994.2
2018-11-20T12:04:38.437Z,994.2
2018-11-20T12:06:01.109Z,994.1
2018-11-20T12:07:02.846Z,994.2
2018-11-20T12:08:04.251Z,994.1
2018-11-20T12:09:05.634Z,994.1
2018-11-20T12:10:07.023Z,994.2
2018-11-20T12:11:08.416Z,994.2
2018-11-20T12:12:09.821Z,994.2
2018-11-20T12:13:11.181Z,994.1
2018-11-20T12:14:12.639Z,994.1
2018-11-20T12:15:14.043Z,994.1
2018-11-20T12:16:15.464Z,994.0
2018-11-20T12:17:16.872Z,994.1
2018-11-20T12:18:18.286Z,994.1
2018-11-20T12:19:19.690Z,994.0
2018-11-20T12:20:21.111Z,994.0
2018-11-20T12:21:22.510Z,994.0
2018-11-20T12:22:23.920Z,994.0
2018-11-20T12:23:25.334Z,994.0
2018-11-20T12:24:27.326Z,993.9
2018-11-20T12:25:28.107Z,994.0
2018-11-20T12:26:29.514Z,994.0
2018-11-20T12:27:30.889Z,994.0
2018-11-20T12:28:32.772Z,994.0
2018-11-20T12:29:34.820Z,993.9
2018-11-20T12:30:35.092Z,994.0
2018-11-20T12:31:36.480Z,994.0
2018-11-20T12:32:38.010Z,993.9
2018-11-20T12:33:41.962Z,993.9
2018-11-20T12:34:40.809Z,993.9
2018-11-20T12:35:42.212Z,993.9
2018-11-20T12:36:43.609Z,993.9
2018-11-20T12:37:45.011Z,993.9
2018-11-20T12:38:46.404Z,993.9
2018-11-20T12:39:47.799Z,993.9
2018-11-20T12:40:50.833Z,993.9
2018-11-20T12:41:50.601Z,993.9
2018-11-20T12:42:52.004Z,993.9
2018-11-20T12:43:54.819Z,993.8
2018-11-20T12:44:56.630Z,993.8
2018-11-20T12:45:57.155Z,993.8
2018-11-20T12:46:58.581Z,993.8
2018-11-20T12:48:01.756Z,993.8
2018-11-20T12:49:01.446Z,993.8
2018-11-20T12:50:02.842Z,993.8
2018-11-20T12:51:05.478Z,993.8
2018-11-20T12:52:06.025Z,993.8
2018-11-20T12:53:07.589Z,993.7
2018-11-20T12:54:08.439Z,993.8
2018-11-20T12:55:09.841Z,993.8
2018-11-20T12:56:11.289Z,993.8
2018-11-20T12:57:13.990Z,993.7
2018-11-20T12:58:14.119Z,993.7
2018-11-20T12:59:15.510Z,993.8
2018-11-20T13:00:16.938Z,993.8
2018-11-20T13:01:18.349Z,993.7
2018-11-20T13:02:19.747Z,993.8
2018-11-20T13:03:21.133Z,993.8
2018-11-20T13:04:22.528Z,993.8
2018-11-20T13:05:23.910Z,993.7
2018-11-20T13:06:25.292Z,993.7
2018-11-20T13:07:26.687Z,993.7
2018-11-20T13:08:31.194Z,993.7
2018-11-20T13:09:29.495Z,993.7
2018-11-20T13:10:30.883Z,993.7
2018-11-20T13:11:32.274Z,993.7
2018-11-20T13:12:33.672Z,993.7
2018-11-20T13:13:36.650Z,993.6
2018-11-20T13:14:36.805Z,993.7